Time;durP1;ratioP1;P1;durP2;ratioP2;P2;SDS_P1;SDS_P2;PMS_P1;PMS_P2;Temp;Humidity;BMP_temperature;BMP_pressure;BME280_temperature;BME280_humidity;BME280_pressure;Samples;Min_cycle;Max_cycle;Signal;HPM_P1;HPM_P2
2024/04/15 06:32:13;;;;;;;16.52;8.00;;;;;;;10.59;62.83;99191.31;5311781;27;20350;-87
2024/04/15 06:34:40;;;;;;;15.05;7.65;;;;;;;10.64;60.94;99189.22;5314067;27;20034;-86
2024/04/15 06:37:07;;;;;;;16.17;7.15;;;;;;;10.68;60.90;99181.03;5284596;27;20494;-87
2024/04/15 06:39:39;;;;;;;19.30;8.27;;;;;;;10.71;62.41;99173.84;5312322;27;20042;-87
2024/04/15 06:42:06;;;;;;;13.60;7.47;;;;;;;10.78;61.01;99169.88;5271747;27;20020;-87
2024/04/15 06:44:41;;;;;;;15.80;7.38;;;;;;;10.81;62.36;99174.94;5283935;27;20010;-87
2024/04/15 06:47:07;;;;;;;14.63;7.53;;;;;;;10.89;61.25;99182.31;5313893;27;19998;-86
2024/04/15 06:49:34;;;;;;;13.55;7.85;;;;;;;10.92;61.18;99153.16;5313696;27;20453;-87
2024/04/15 06:52:01;;;;;;;15.75;7.40;;;;;;;10.99;61.28;99148.31;5313899;27;20478;-86
2024/04/15 06:54:27;;;;;;;24.13;7.97;;;;;;;11.03;61.51;99147.97;5311912;27;20001;-89
2024/04/15 06:56:54;;;;;;;18.80;8.45;;;;;;;11.08;61.67;99152.94;5347607;26;20013;-87
2024/04/15 06:59:21;;;;;;;13.50;7.60;;;;;;;11.15;61.51;99146.31;5318272;26;20004;-87
2024/04/15 07:01:48;;;;;;;17.95;8.40;;;;;;;11.23;61.92;99152.81;5303933;26;20017;-87
2024/04/15 07:04:20;;;;;;;17.25;7.82;;;;;;;11.28;62.86;99146.28;5318346;26;20020;-87
2024/04/15 07:06:47;;;;;;;17.50;8.85;;;;;;;11.34;61.40;99130.03;5318429;26;20405;-87
2024/04/15 07:09:23;;;;;;;22.73;10.05;;;;;;;11.38;63.01;99140.34;5333948;26;20000;-87
2024/04/15 07:12:21;;;;;;;16.63;8.60;;;;;;;11.42;63.37;99139.19;5343521;26;20006;-88
2024/04/15 07:14:47;;;;;;;21.58;10.60;;;;;;;11.46;61.73;99140.66;5313846;27;20010;-87
2024/04/15 07:17:21;;;;;;;26.48;9.73;;;;;;;11.42;62.62;99131.28;5313691;27;20016;-86
2024/04/15 07:19:48;;;;;;;16.92;9.20;;;;;;;11.45;61.16;99131.06;5316080;26;20002;-87
2024/04/15 07:23:11;;;;;;;23.52;9.68;;;;;;;11.40;63.66;99123.47;5348051;26;20005;-87
2024/04/15 07:25:38;;;;;;;22.98;9.95;;;;;;;11.47;61.71;99114.19;5348016;26;20005;-87
2024/04/15 07:28:04;;;;;;;17.30;9.55;;;;;;;11.50;61.90;99107.88;5346667;26;20016;-87
2024/04/15 07:30:34;;;;;;;17.88;9.50;;;;;;;11.50;63.23;99115.78;5347664;26;20012;-87
2024/04/15 07:33:01;;;;;;;19.38;9.70;;;;;;;11.54;62.12;99111.13;5296169;27;20076;-90
2024/04/15 07:35:30;;;;;;;19.23;10.00;;;;;;;11.55;62.05;99104.91;5283809;27;20010;-88
2024/04/15 07:38:16;;;;;;;23.75;9.52;;;;;;;11.51;63.77;99106.91;5313537;27;20009;-87
2024/04/15 07:40:43;;;;;;;18.58;9.13;;;;;;;11.56;61.77;99096.88;5313629;27;20359;-87
2024/04/15 07:43:09;;;;;;;18.48;10.15;;;;;;;11.54;61.64;99097.94;5284046;27;20079;-87
2024/04/15 07:45:54;;;;;;;12.55;8.90;;;;;;;11.52;63.57;99100.72;5283688;27;20397;-87
2024/04/15 07:48:20;;;;;;;18.25;8.82;;;;;;;11.57;61.71;99097.72;5283712;27;20001;-87
2024/04/15 07:50:47;;;;;;;15.57;8.23;;;;;;;11.60;61.81;99092.25;5316597;26;20489;-87
2024/04/15 07:53:15;;;;;;;18.02;9.52;;;;;;;11.66;62.01;99096.22;5307546;27;20002;-87
2024/04/15 07:55:45;;;;;;;19.23;8.73;;;;;;;11.68;62.41;99084.63;5283390;27;20021;-87
2024/04/15 07:58:12;;;;;;;18.13;8.25;;;;;;;11.74;61.74;99083.34;5283576;27;20338;-87
2024/04/15 08:00:46;;;;;;;18.23;8.35;;;;;;;11.75;63.23;99086.78;5283347;27;20083;-87
2024/04/15 08:03:13;;;;;;;21.02;8.45;;;;;;;11.79;61.93;99073.28;5283488;27;20016;-87
2024/04/15 08:05:50;;;;;;;15.88;7.68;;;;;;;11.79;63.41;99080.34;5283107;27;20342;-87
2024/04/15 08:08:16;;;;;;;14.02;6.65;;;;;;;11.88;62.11;99057.75;5283517;27;20006;-88
2024/04/15 08:10:43;;;;;;;14.10;7.00;;;;;;;11.96;61.69;99055.38;5313163;27;20016;-87
2024/04/15 08:13:30;;;;;;;16.83;6.43;;;;;;;12.03;62.98;99048.69;5282078;27;20384;-88
2024/04/15 08:15:57;;;;;;;12.52;5.95;;;;;;;12.17;61.42;99033.63;5282985;27;20024;-88
2024/04/15 08:19:02;;;;;;;12.90;5.80;;;;;;;12.23;61.08;99030.56;5313544;27;20017;-87
2024/04/15 08:21:29;;;;;;;11.77;5.07;;;;;;;12.34;60.76;99014.72;5282747;27;20010;-88
2024/04/15 08:23:56;;;;;;;14.57;6.25;;;;;;;12.40;60.32;99012.59;5347116;26;20013;-88
2024/04/15 08:27:06;;;;;;;16.60;5.88;;;;;;;12.43;61.15;99014.97;5347263;26;20009;-88
2024/04/15 08:29:33;;;;;;;15.32;5.35;;;;;;;12.52;59.51;99009.00;5317062;26;20004;-88
2024/04/15 08:32:00;;;;;;;16.88;5.43;;;;;;;12.53;60.06;99012.47;5313475;26;20006;-88
2024/04/15 08:34:26;;;;;;;17.50;5.70;;;;;;;12.51;60.16;99002.88;5282462;27;20009;-88
2024/04/15 08:36:53;;;;;;;13.27;5.10;;;;;;;12.56;60.19;98994.59;5282520;27;20021;-87
2024/04/15 08:39:37;;;;;;;14.90;5.53;;;;;;;12.58;60.20;98997.13;5312603;27;20412;-87
2024/04/15 08:45:20;;;;;;;10.57;4.15;;;;;;;12.82;59.74;98994.34;5313088;27;20017;-88
2024/04/15 08:47:50;;;;;;;15.77;4.90;;;;;;;12.90;59.58;99013.06;5282948;27;20029;-88
2024/04/15 08:50:35;;;;;;;10.93;4.63;;;;;;;12.96;58.44;98987.13;5283287;27;20014;-88
2024/04/15 08:53:02;;;;;;;16.10;5.00;;;;;;;13.05;57.95;98973.22;5302616;26;20005;-88
2024/04/15 08:55:42;;;;;;;14.65;4.75;;;;;;;13.03;56.37;98962.78;5316789;26;20020;-87
2024/04/15 08:58:11;;;;;;;15.15;4.22;;;;;;;13.12;57.06;98957.72;5309595;27;20017;-88
2024/04/15 09:00:40;;;;;;;15.18;5.15;;;;;;;13.15;57.27;98950.38;5310362;26;20009;-88
2024/04/15 09:07:01;;;;;;;16.58;4.18;;;;;;;13.32;56.25;98945.50;5349397;26;20033;-88
2024/04/15 09:13:15;;;;;;;9.38;3.53;;;;;;;13.33;54.61;98928.69;5349466;26;20004;-88
2024/04/15 09:16:05;;;;;;;13.70;3.53;;;;;;;13.29;54.41;98937.81;5316717;26;20362;-88
2024/04/15 09:18:32;;;;;;;11.48;3.60;;;;;;;13.34;54.85;98927.72;5316933;26;20008;-88
2024/04/15 09:20:59;;;;;;;11.68;3.83;;;;;;;13.36;55.02;98917.88;5346282;26;20020;-88
2024/04/15 09:27:10;;;;;;;11.20;3.50;;;;;;;13.44;54.09;98904.00;5352586;26;20007;-88
2024/04/15 09:30:07;;;;;;;11.27;3.00;;;;;;;13.42;53.11;98904.13;5347973;26;20133;-88
2024/04/15 09:33:11;;;;;;;12.20;3.83;;;;;;;13.46;52.74;98906.53;5319584;26;20514;-88
2024/04/15 09:35:39;;;;;;;7.97;3.33;;;;;;;13.53;53.83;98891.88;5319705;26;20001;-88
2024/04/15 09:38:09;;;;;;;7.63;2.83;;;;;;;13.55;53.42;98885.50;5319615;26;20016;-88
2024/04/15 09:41:04;;;;;;;7.40;3.03;;;;;;;13.61;52.54;98881.47;5319563;26;20000;-88
2024/04/15 09:43:31;;;;;;;9.07;2.83;;;;;;;13.68;52.63;98876.50;5350174;26;20322;-88
2024/04/15 09:46:15;;;;;;;8.63;2.30;;;;;;;13.71;52.25;98873.59;5319387;26;20031;-88
2024/04/15 09:48:43;;;;;;;10.40;2.22;;;;;;;13.77;51.81;98857.22;5319642;26;20013;-88
2024/04/15 09:54:33;;;;;;;5.70;2.38;;;;;;;13.84;50.57;98846.13;5351910;26;20008;-88
2024/04/15 10:00:02;;;;;;;7.45;2.50;;;;;;;13.77;51.32;98820.19;5349399;26;20341;-88
2024/04/15 10:02:37;;;;;;;10.93;2.53;;;;;;;13.75;50.50;98816.03;5319275;26;20008;-89
2024/04/15 10:05:25;;;;;;;7.93;2.13;;;;;;;13.70;49.15;98819.03;5349539;26;20004;-88
2024/04/15 10:07:53;;;;;;;6.43;1.90;;;;;;;13.73;49.33;98799.44;5318824;26;20016;-88
2024/04/15 10:10:22;;;;;;;5.85;2.28;;;;;;;13.69;49.45;98804.16;5319426;26;20019;-88
2024/04/15 10:12:51;;;;;;;4.47;1.88;;;;;;;13.68;49.96;98795.38;5349624;26;20008;-88
2024/04/15 10:15:20;;;;;;;4.78;2.17;;;;;;;13.70;50.15;98786.47;5327061;26;20016;-88
2024/04/15 10:18:23;;;;;;;4.47;1.98;;;;;;;13.67;48.97;98796.34;5285040;27;20442;-88
2024/04/15 10:20:50;;;;;;;5.15;1.88;;;;;;;13.74;50.20;98795.81;5314560;27;20023;-88
2024/04/15 10:23:19;;;;;;;3.80;2.20;;;;;;;13.73;49.95;98795.00;5314865;27;20052;-88
2024/04/15 10:25:49;;;;;;;7.43;2.20;;;;;;;13.71;48.73;98782.88;5314826;27;20013;-88
2024/04/15 10:28:17;;;;;;;10.85;2.35;;;;;;;13.75;49.55;98795.69;5285605;27;20009;-88
2024/04/15 10:30:45;;;;;;;6.95;2.40;;;;;;;13.78;49.26;98778.69;5285031;27;20006;-88
2024/04/15 10:33:15;;;;;;;7.50;2.25;;;;;;;13.85;49.50;98766.63;5284058;27;20025;-87
2024/04/15 10:35:56;;;;;;;6.05;2.10;;;;;;;13.86;48.40;98768.31;5314135;27;20017;-88
2024/04/15 10:38:27;;;;;;;5.00;2.15;;;;;;;13.92;48.91;98751.91;5279951;27;20453;-88
2024/04/15 10:41:12;;;;;;;8.57;2.00;;;;;;;14.03;50.38;98735.09;5314718;27;20009;-87
2024/04/15 10:43:39;;;;;;;6.18;2.00;;;;;;;14.23;50.41;98743.06;5284484;27;20344;-88
2024/04/15 10:46:07;;;;;;;8.63;2.03;;;;;;;14.37;50.18;98727.75;5313962;27;20016;-88
2024/04/15 10:48:54;;;;;;;11.82;2.50;;;;;;;14.50;48.27;98724.84;5314534;27;20366;-88
2024/04/15 10:51:21;;;;;;;5.20;1.73;;;;;;;14.65;48.93;98704.91;5284753;27;20017;-88
2024/04/15 10:53:58;;;;;;;9.20;2.33;;;;;;;14.75;47.32;98696.13;5284410;27;20006;-88
2024/04/15 10:56:25;;;;;;;5.38;2.08;;;;;;;14.88;48.38;98691.38;5284484;27;20002;-88
2024/04/15 10:58:51;;;;;;;10.05;2.38;;;;;;;14.93;47.69;98694.47;5314116;27;20006;-88
2024/04/15 11:01:28;;;;;;;7.50;2.05;;;;;;;14.93;47.64;98689.16;5314555;27;20016;-88
2024/04/15 11:03:55;;;;;;;4.72;1.80;;;;;;;15.01;47.88;98677.00;5303617;27;20005;-88
2024/04/15 11:10:13;;;;;;;6.05;1.40;;;;;;;15.11;44.82;98654.78;5351046;26;20007;-88
2024/04/15 11:12:58;;;;;;;4.60;1.65;;;;;;;15.11;45.96;98665.41;5348694;26;20020;-88
2024/04/15 11:15:26;;;;;;;4.47;1.77;;;;;;;15.11;46.17;98643.38;5318221;26;20005;-88
2024/04/15 11:17:55;;;;;;;4.53;1.65;;;;;;;15.06;46.36;98627.09;5318287;26;20082;-88
2024/04/15 11:20:28;;;;;;;6.70;2.00;;;;;;;15.02;46.33;98625.69;5318449;26;20017;-88
2024/04/15 11:22:54;;;;;;;3.78;1.65;;;;;;;15.04;47.42;98616.63;5302069;26;20051;-88
2024/04/15 11:25:21;;;;;;;8.40;2.25;;;;;;;15.04;46.82;98605.19;5289360;27;20033;-88
2024/04/15 11:28:05;;;;;;;4.47;1.88;;;;;;;15.10;44.70;98601.94;5346132;26;20045;-88
2024/04/15 11:30:32;;;;;;;6.20;2.08;;;;;;;15.24;47.31;98582.91;5348310;26;20008;-88
2024/04/15 11:32:59;;;;;;;9.27;1.70;;;;;;;15.33;46.87;98583.03;5332546;26;20002;-88
2024/04/15 11:35:26;;;;;;;5.65;1.92;;;;;;;15.37;46.30;98581.75;5284048;27;20017;-88
2024/04/15 11:38:20;;;;;;;10.70;1.92;;;;;;;15.31;43.98;98577.00;5314123;27;20006;-88
2024/04/15 11:40:51;;;;;;;7.63;2.00;;;;;;;15.32;45.46;98565.41;5284045;27;20002;-88
2024/04/15 11:43:20;;;;;;;4.40;2.28;;;;;;;15.31;45.62;98561.94;5313511;27;20005;-88
2024/04/15 11:45:53;;;;;;;9.38;2.30;;;;;;;15.28;43.55;98556.94;5284269;27;20006;-88
2024/04/15 11:48:21;;;;;;;;;;;;;;;15.30;44.54;98546.19;5283032;27;20445;-88
2024/04/15 11:51:08;;;;;;;4.82;1.60;;;;;;;15.34;42.55;98518.41;5310432;26;19962;-88
2024/04/15 11:53:35;;;;;;;3.00;1.50;;;;;;;15.48;45.23;98517.88;5302744;27;20075;-88
2024/04/15 11:56:03;;;;;;;7.47;1.73;;;;;;;15.63;45.99;98499.63;5283471;27;20002;-88
2024/04/15 11:58:32;;;;;;;6.85;1.83;;;;;;;15.77;44.61;98519.50;5283883;27;20041;-88
2024/04/15 12:00:59;;;;;;;6.57;1.50;;;;;;;15.93;44.32;98494.09;5284952;27;20002;-88
2024/04/15 12:03:31;;;;;;;8.43;2.10;;;;;;;15.98;43.81;98475.91;5283830;27;20016;-87
2024/04/15 12:05:57;;;;;;;6.40;1.75;;;;;;;16.05;44.06;98480.59;5298020;26;20020;-87
2024/04/15 12:08:25;;;;;;;5.50;1.80;;;;;;;16.07;43.92;98454.75;5317402;26;20000;-88
2024/04/15 12:10:59;;;;;;;3.75;1.88;;;;;;;16.11;43.40;98448.13;5347577;26;20024;-88
2024/04/15 12:13:26;;;;;;;3.55;1.90;;;;;;;16.31;45.30;98431.97;5317602;26;20017;-88
2024/04/15 12:15:53;;;;;;;7.05;2.17;;;;;;;16.47;44.34;98429.41;5290039;27;20001;-88
2024/04/15 12:18:26;;;;;;;4.95;2.35;;;;;;;16.62;41.31;98442.09;5313206;27;20078;-88
2024/04/15 12:20:52;;;;;;;8.38;2.88;;;;;;;16.80;43.04;98440.19;5331864;26;20005;-88
2024/04/15 12:23:19;;;;;;;6.53;2.72;;;;;;;17.05;43.58;98424.31;5317306;26;20078;-88
2024/04/15 12:25:51;;;;;;;8.35;2.70;;;;;;;17.18;40.09;98397.28;5347623;26;20008;-88
2024/04/15 12:28:18;;;;;;;6.95;2.80;;;;;;;17.32;42.17;98392.31;5312152;26;20022;-88
2024/04/15 12:30:47;;;;;;;5.22;2.60;;;;;;;17.30;41.53;98411.09;5283582;27;20005;-88
2024/04/15 12:33:14;;;;;;;8.48;3.10;;;;;;;17.15;41.08;98386.97;5283028;27;20000;-88
2024/04/15 12:35:49;;;;;;;6.43;3.08;;;;;;;16.92;40.54;98378.75;5282931;27;20020;-88
2024/04/15 12:38:16;;;;;;;9.48;3.17;;;;;;;16.70;40.81;98393.50;5282725;27;19998;-88
2024/04/15 12:40:54;;;;;;;7.10;3.25;;;;;;;16.36;41.49;98376.56;5282808;27;20009;-88
2024/04/15 12:43:21;;;;;;;7.13;3.35;;;;;;;16.14;41.58;98365.50;5346789;26;20456;-88
2024/04/15 12:45:48;;;;;;;6.38;3.53;;;;;;;15.88;42.19;98372.47;5305793;27;20369;-88
2024/04/15 12:48:38;;;;;;;9.23;3.70;;;;;;;15.61;42.72;98374.28;5304830;27;20013;-88
2024/04/15 12:51:04;;;;;;;11.05;3.85;;;;;;;15.40;43.16;98365.84;5317203;26;20404;-88
2024/04/15 12:53:31;;;;;;;6.78;3.55;;;;;;;15.18;43.75;98336.97;5317371;26;20012;-88
2024/04/15 12:55:58;;;;;;;7.68;3.72;;;;;;;14.93;44.14;98344.72;5303545;27;20005;-88
2024/04/15 12:58:25;;;;;;;7.90;3.50;;;;;;;14.75;44.67;98325.28;5310575;27;20365;-88
2024/04/15 13:01:09;;;;;;;7.10;3.65;;;;;;;14.48;44.93;98324.34;5345177;26;20016;-88
2024/04/15 13:03:36;;;;;;;7.97;3.38;;;;;;;14.38;45.77;98325.22;5316843;26;20033;-88
2024/04/15 13:06:04;;;;;;;7.80;3.55;;;;;;;14.27;45.54;98298.94;5316475;26;20074;-88
2024/04/15 13:08:31;;;;;;;6.80;3.35;;;;;;;14.19;45.77;98307.63;5282706;27;20012;-88
2024/04/15 13:10:57;;;;;;;5.38;2.60;;;;;;;14.07;45.58;98291.13;5282864;27;20006;-88
2024/04/15 13:13:47;;;;;;;12.68;3.28;;;;;;;13.98;45.08;98299.94;5312264;27;20006;-88
2024/04/15 13:16:14;;;;;;;7.85;3.95;;;;;;;14.01;45.68;98284.59;5282135;27;20013;-88
2024/04/15 13:18:41;;;;;;;10.95;3.50;;;;;;;14.03;46.12;98287.94;5312495;27;20041;-88
2024/04/15 13:21:16;;;;;;;4.22;2.70;;;;;;;14.00;46.02;98279.44;5312578;27;20075;-88
2024/04/15 13:23:44;;;;;;;11.95;2.60;;;;;;;14.05;45.85;98304.50;5282374;27;20013;-87
2024/04/15 13:26:14;;;;;;;8.85;3.10;;;;;;;14.04;45.56;98259.66;5282445;27;20006;-88
2024/04/15 13:28:41;;;;;;;8.00;2.65;;;;;;;14.09;45.79;98249.47;5282612;27;20006;-88
2024/04/15 13:31:07;;;;;;;9.40;2.75;;;;;;;14.09;45.90;98246.00;5312064;27;20009;-88
2024/04/15 13:33:51;;;;;;;5.47;2.65;;;;;;;14.01;46.62;98246.72;5311932;27;20009;-87
2024/04/15 13:36:18;;;;;;;10.27;3.25;;;;;;;13.97;46.44;98232.97;5315566;26;20006;-88
2024/04/15 13:38:45;;;;;;;9.88;2.70;;;;;;;13.88;47.16;98233.84;5346744;26;20000;-88
2024/04/15 13:41:14;;;;;;;9.93;3.00;;;;;;;13.68;49.32;98266.50;5332122;26;20471;-88
2024/04/15 13:43:42;;;;;;;5.60;2.65;;;;;;;13.49;49.26;98267.38;5331967;26;20001;-87
2024/04/15 13:46:09;;;;;;;8.57;2.58;;;;;;;13.19;50.69;98285.06;5301859;26;20006;-87
2024/04/15 13:48:46;;;;;;;6.75;3.22;;;;;;;12.76;56.15;98255.50;5317080;26;20083;-87
2024/04/15 13:51:13;;;;;;;8.38;3.42;;;;;;;12.45;53.58;98252.97;5346178;26;20005;-88
2024/04/15 13:53:40;;;;;;;6.82;3.03;;;;;;;12.10;54.40;98236.66;5316339;26;20318;-88
2024/04/15 13:56:13;;;;;;;7.18;2.97;;;;;;;11.78;56.54;98227.91;5301886;26;20020;-88
2024/04/15 13:58:40;;;;;;;10.30;2.97;;;;;;;11.56;56.33;98223.69;5345758;26;20012;-88
2024/04/15 14:01:07;;;;;;;10.52;3.05;;;;;;;11.33;58.20;98227.31;5315560;26;20005;-87
2024/04/15 14:03:33;;;;;;;7.60;3.30;;;;;;;11.18;58.79;98210.19;5325341;26;20075;-88
2024/04/15 14:06:00;;;;;;;7.10;3.45;;;;;;;11.08;60.11;98224.13;5311649;27;20001;-88
2024/04/15 14:08:56;;;;;;;8.65;3.17;;;;;;;11.00;65.69;98200.25;5311449;27;20009;-88
2024/04/15 14:11:22;;;;;;;9.00;3.60;;;;;;;11.10;60.66;98173.94;5312862;27;20013;-87
2024/04/15 14:13:50;;;;;;;5.93;3.10;;;;;;;11.15;60.72;98173.56;5328950;26;20017;-88
2024/04/15 14:16:19;;;;;;;5.72;2.72;;;;;;;11.18;60.57;98175.94;5345452;26;20350;-88
2024/04/15 14:18:46;;;;;;;5.60;2.63;;;;;;;11.23;59.73;98157.09;5340077;26;20079;-88
2024/04/15 14:21:13;;;;;;;9.20;2.70;;;;;;;11.27;59.61;98146.19;5284248;27;20117;-88
2024/04/15 14:23:42;;;;;;;6.55;2.92;;;;;;;11.27;60.30;98156.72;5284718;27;20024;-88
2024/04/15 14:26:09;;;;;;;5.53;2.10;;;;;;;11.34;59.57;98123.59;5284786;27;20453;-87
2024/04/15 14:31:52;;;;;;;5.13;2.00;;;;;;;11.38;59.08;98129.47;5349041;26;20004;-87
2024/04/15 14:34:20;;;;;;;6.30;2.10;;;;;;;11.33;59.73;98100.88;5318647;26;20028;-88
2024/04/15 14:36:47;;;;;;;8.30;2.50;;;;;;;11.28;59.43;98097.81;5318950;26;20361;-88
2024/04/15 14:39:27;;;;;;;8.02;2.08;;;;;;;11.13;63.50;98083.31;5348318;26;20420;-88
2024/04/15 14:41:54;;;;;;;7.15;1.70;;;;;;;11.07;59.71;98058.38;5318730;26;20009;-87
2024/04/15 14:44:20;;;;;;;7.03;2.22;;;;;;;10.98;60.42;98049.47;5334547;26;20002;-87
2024/04/15 14:46:51;;;;;;;6.80;2.42;;;;;;;10.89;62.74;98040.56;5348876;26;20000;-88
2024/04/15 14:49:20;;;;;;;5.30;1.90;;;;;;;10.85;61.26;98026.00;5319174;26;20033;-88
2024/04/15 14:51:53;;;;;;;3.90;2.08;;;;;;;10.82;61.53;98016.59;5316010;26;20005;-88
2024/04/15 14:54:20;;;;;;;4.75;2.30;;;;;;;10.84;61.73;98015.59;5346532;26;20453;-88
2024/04/15 14:57:06;;;;;;;6.07;1.95;;;;;;;10.79;64.84;97993.16;5284405;27;20477;-87
2024/04/15 14:59:33;;;;;;;12.60;2.05;;;;;;;10.86;62.48;97982.91;5314395;27;20013;-88
2024/04/15 15:02:00;;;;;;;5.00;1.77;;;;;;;10.91;62.90;97974.59;5314186;27;20472;-88
2024/04/15 15:04:39;;;;;;;5.15;1.98;;;;;;;10.92;64.89;97981.56;5314286;27;20042;-89
2024/04/15 15:07:07;;;;;;;4.25;2.25;;;;;;;11.00;62.79;97958.03;5301362;27;20002;-87
2024/04/15 15:09:34;;;;;;;6.97;1.92;;;;;;;11.05;62.45;97963.72;5333284;26;20016;-87
2024/04/15 15:12:05;;;;;;;8.88;2.00;;;;;;;11.09;63.36;97961.63;5318049;26;20001;-87
2024/04/15 15:14:31;;;;;;;4.97;1.73;;;;;;;11.14;62.63;97969.13;5340948;26;20330;-87
2024/04/15 15:16:58;;;;;;;6.47;2.20;;;;;;;11.14;62.87;97959.41;5324976;26;20013;-88
2024/04/15 15:19:37;;;;;;;7.80;2.22;;;;;;;11.04;65.70;97961.22;5304742;26;20045;-87
2024/04/15 15:22:04;;;;;;;6.93;1.75;;;;;;;10.82;66.05;98027.09;5304051;26;20020;-87
2024/04/15 15:24:32;;;;;;;4.03;1.30;;;;;;;10.70;64.71;98028.16;5344006;26;20009;-87
2024/04/15 15:27:01;;;;;;;2.33;0.90;;;;;;;10.52;65.38;98052.44;5308428;26;20009;-87
2024/04/15 15:29:27;;;;;;;2.30;0.60;;;;;;;10.35;64.01;98090.63;5333809;26;20005;-87
2024/04/15 15:31:55;;;;;;;1.75;0.55;;;;;;;10.12;63.64;98087.25;5291176;26;20020;-87
2024/04/15 15:34:22;;;;;;;1.42;0.45;;;;;;;9.88;64.35;98099.66;5294205;26;20010;-87
2024/04/15 15:36:49;;;;;;;0.88;0.50;;;;;;;9.66;64.86;98116.34;5314613;26;20023;-87
2024/04/15 15:39:16;;;;;;;0.63;0.40;;;;;;;9.45;64.81;98140.72;5302389;27;20017;-86
2024/04/15 15:42:02;;;;;;;1.08;0.40;;;;;;;9.18;65.52;98135.81;5305664;26;20484;-87
2024/04/15 15:44:29;;;;;;;;;;;;;;;9.05;64.52;98133.31;5318279;26;20357;-86
2024/04/15 15:47:02;;;;;;;1.10;0.50;;;;;;;8.85;66.00;98131.28;5318229;26;19926;-86
2024/04/15 15:49:29;;;;;;;;;;;;;;;8.73;65.17;98132.19;5315211;26;20001;-86
2024/04/15 15:52:01;;;;;;;0.93;0.57;;;;;;;8.60;67.07;98130.50;5277657;27;19933;-86
2024/04/15 15:54:40;;;;;;;1.10;0.70;;;;;;;8.43;67.93;98104.66;5308657;27;20087;-86
2024/04/15 15:57:07;;;;;;;0.90;0.50;;;;;;;8.37;67.68;98092.84;5313482;27;20017;-86
2024/04/15 15:59:37;;;;;;;0.30;0.30;;;;;;;8.29;68.64;98100.44;5283238;27;20508;-87
2024/04/15 16:02:04;;;;;;;1.00;0.50;;;;;;;8.23;68.70;98088.66;5313287;27;20443;-87
2024/04/15 16:04:31;;;;;;;2.03;0.50;;;;;;;8.17;68.80;98081.22;5283302;27;20330;-86
2024/04/15 16:07:01;;;;;;;3.08;0.73;;;;;;;8.12;69.46;98081.59;5283624;27;20463;-86
2024/04/15 16:09:33;;;;;;;1.30;0.57;;;;;;;8.11;69.89;98094.81;5316002;26;20088;-86
2024/04/15 16:12:13;;;;;;;1.27;0.60;;;;;;;8.07;70.35;98109.91;5347750;26;20001;-87
2024/04/15 16:14:40;;;;;;;2.78;0.80;;;;;;;8.12;71.09;98114.81;5317316;26;20037;-87
2024/04/15 16:17:22;;;;;;;3.40;0.70;;;;;;;8.13;71.95;98135.66;5347385;26;20001;-86
2024/04/15 16:19:49;;;;;;;1.27;0.70;;;;;;;8.21;72.29;98114.97;5333003;26;20079;-86
2024/04/15 16:22:16;;;;;;;2.60;0.70;;;;;;;8.28;72.99;98122.38;5347236;26;20330;-86
2024/04/15 16:24:50;;;;;;;2.60;0.60;;;;;;;8.37;73.07;98145.28;5317508;26;20008;-87
2024/04/15 16:27:17;;;;;;;2.50;0.63;;;;;;;8.51;73.38;98135.56;5316847;26;20511;-86
2024/04/15 16:29:43;;;;;;;2.42;0.73;;;;;;;8.56;72.40;98133.47;5317429;26;20020;-86
2024/04/15 16:32:32;;;;;;;1.25;0.70;;;;;;;8.56;70.74;98143.97;5317158;26;20009;-87
2024/04/15 16:35:13;;;;;;;2.97;0.80;;;;;;;8.55;70.37;98143.13;5335927;26;20013;-86
2024/04/15 16:37:40;;;;;;;2.22;0.70;;;;;;;8.54;70.92;98132.75;5346982;26;20408;-86
2024/04/15 16:40:08;;;;;;;3.47;0.80;;;;;;;8.53;71.51;98138.94;5317295;26;20001;-89
2024/04/15 16:43:11;;;;;;;1.10;0.70;;;;;;;8.46;71.62;98157.72;5332918;26;20008;-89
2024/04/15 16:45:37;;;;;;;3.03;0.60;;;;;;;8.50;71.74;98157.50;5313146;26;20045;-89
2024/04/15 16:48:04;;;;;;;2.75;0.90;;;;;;;8.47;71.49;98156.78;5337063;26;20239;-88
2024/04/15 16:50:53;;;;;;;2.65;1.00;;;;;;;8.38;70.66;98149.59;5300776;27;20034;-88
2024/04/15 16:53:20;;;;;;;1.13;0.90;;;;;;;8.35;70.94;98160.31;5313105;27;20008;-87
2024/04/15 16:55:49;;;;;;;1.38;0.70;;;;;;;8.25;70.59;98160.13;5312442;27;20005;-88
2024/04/15 16:58:18;;;;;;;1.65;0.80;;;;;;;8.16;70.89;98160.81;5312601;27;20021;-87
2024/04/15 17:00:56;;;;;;;2.53;1.08;;;;;;;8.05;71.07;98158.97;5288802;26;20017;-87
2024/04/15 17:03:23;;;;;;;3.08;1.05;;;;;;;8.02;71.85;98153.94;5347075;26;20029;-87
2024/04/15 17:05:50;;;;;;;5.60;1.00;;;;;;;7.99;72.00;98159.44;5269463;27;20072;-87
2024/04/15 17:11:38;;;;;;;3.13;0.95;;;;;;;7.92;72.08;98167.72;5312470;27;20017;-87
2024/04/15 17:14:05;;;;;;;2.28;1.27;;;;;;;7.87;71.95;98156.75;5282425;27;20016;-87
2024/04/15 17:20:09;;;;;;;3.95;1.13;;;;;;;7.83;72.49;98186.72;5302666;27;20013;-88
2024/04/15 17:22:36;;;;;;;3.08;1.45;;;;;;;7.81;72.79;98201.69;5282107;27;20102;-87
2024/04/15 17:25:20;;;;;;;3.78;1.35;;;;;;;7.70;73.94;98210.31;5335320;26;20005;-88
2024/04/15 17:27:47;;;;;;;2.65;1.33;;;;;;;7.75;73.35;98207.38;5346331;26;20017;-88
2024/04/15 17:30:14;;;;;;;2.38;1.20;;;;;;;7.73;73.18;98212.72;5346515;26;20007;-91
2024/04/15 17:33:36;;;;;;;3.50;1.20;;;;;;;7.69;74.04;98208.63;5346932;26;20012;-91
2024/04/15 17:36:03;;;;;;;2.63;0.82;;;;;;;7.72;73.37;98184.00;5316563;26;20011;-88
2024/04/15 17:38:32;;;;;;;2.60;1.02;;;;;;;7.69;73.75;98193.78;5346504;26;20019;-88
2024/04/15 17:41:50;;;;;;;1.30;0.90;;;;;;;7.65;73.83;98187.06;5316593;26;20042;-88
2024/04/15 17:44:16;;;;;;;2.30;1.00;;;;;;;7.69;73.85;98201.63;5273971;27;20334;-88
2024/04/15 17:46:43;;;;;;;1.55;0.80;;;;;;;7.66;74.03;98199.22;5283415;27;20001;-91
2024/04/15 17:49:16;;;;;;;4.57;1.85;;;;;;;7.59;73.85;98194.53;5315502;27;20001;-91
2024/04/15 17:51:43;;;;;;;;;;;;;;;7.61;73.02;98205.72;5334006;26;20013;-88
2024/04/15 17:54:10;;;;;;;2.35;1.13;;;;;;;7.61;73.71;98196.09;5319772;26;19926;-88
2024/04/15 18:00:28;;;;;;;2.28;1.10;;;;;;;7.53;74.02;98208.88;5311645;27;20005;-88
2024/04/15 18:06:42;;;;;;;7.05;1.30;;;;;;;7.50;74.96;98201.22;5317728;27;20008;-88
2024/04/15 18:12:56;;;;;;;4.30;1.58;;;;;;;7.49;74.89;98207.41;5317666;27;20412;-89
2024/04/15 18:16:08;;;;;;;6.30;1.60;;;;;;;7.49;75.34;98212.66;5315134;27;20347;-89
2024/04/15 18:18:35;;;;;;;3.13;1.38;;;;;;;7.58;75.49;98221.66;5285079;27;20005;-89
2024/04/15 18:21:02;;;;;;;4.78;1.63;;;;;;;7.63;76.03;98225.63;5284801;27;20337;-88
2024/04/15 18:23:49;;;;;;;2.50;1.20;;;;;;;7.66;76.33;98242.88;5315271;27;20016;-88
2024/04/15 18:26:16;;;;;;;5.60;1.50;;;;;;;7.75;75.96;98217.84;5285075;27;20001;-88
2024/04/15 18:28:42;;;;;;;6.43;1.60;;;;;;;7.81;75.80;98220.03;5343388;26;20001;-88
2024/04/15 18:35:08;;;;;;;3.50;1.40;;;;;;;7.86;74.75;98223.19;5351759;26;20008;-88
2024/04/15 18:37:35;;;;;;;3.60;1.25;;;;;;;7.92;75.39;98220.13;5319054;26;20015;-88
2024/04/15 18:40:02;;;;;;;6.70;1.30;;;;;;;7.94;75.22;98225.25;5347982;26;20004;-88
2024/04/15 18:46:10;;;;;;;6.50;1.20;;;;;;;7.97;74.82;98221.56;5306214;27;20373;-87
2024/04/15 18:48:52;;;;;;;3.30;1.40;;;;;;;7.94;73.80;98235.72;5284501;27;20392;-87
2024/04/15 18:51:19;;;;;;;3.90;1.27;;;;;;;7.97;74.44;98221.56;5284981;27;20025;-88
2024/04/15 18:53:49;;;;;;;4.93;1.00;;;;;;;7.95;74.15;98229.53;5314706;27;20438;-88
2024/04/15 18:59:38;;;;;;;3.75;1.17;;;;;;;7.89;73.69;98251.75;5314170;27;20014;-87
2024/04/15 19:02:06;;;;;;;1.77;0.70;;;;;;;7.87;73.75;98255.44;5284299;27;20006;-88
2024/04/15 19:04:45;;;;;;;2.00;1.00;;;;;;;7.80;73.46;98262.88;5284258;27;20009;-90
2024/04/15 19:07:11;;;;;;;3.80;1.00;;;;;;;7.82;74.21;98256.59;5312305;27;20030;-87
2024/04/15 19:09:39;;;;;;;3.67;1.10;;;;;;;7.81;73.93;98254.09;5314430;27;20044;-87
2024/04/15 19:12:10;;;;;;;5.05;1.10;;;;;;;7.78;73.90;98251.69;5314576;27;20001;-87
2024/04/15 19:14:38;;;;;;;3.75;1.10;;;;;;;7.79;74.04;98267.31;5284405;27;20001;-87
2024/04/15 19:17:25;;;;;;;3.97;1.05;;;;;;;7.77;74.12;98263.94;5210252;27;20082;-87
2024/04/15 19:19:53;;;;;;;5.38;1.23;;;;;;;7.75;73.82;98271.09;5183223;27;20373;-87
2024/04/15 19:22:26;;;;;;;5.53;1.55;;;;;;;7.70;73.89;98265.31;5248834;27;20014;-87
2024/04/15 19:24:52;;;;;;;;;;;;;;;7.71;72.98;98271.41;5314669;27;20034;-87